sensor_id;sensor_type;location;lat;lon;timestamp;pressure;altitude;pressure_sealevel;temperature;humidity
56928;BME280;60850;52.502;13.426;2024-03-22T00:02:26;101692.97;;;7.88;100.00
56928;BME280;60850;52.502;13.426;2024-03-22T00:04:53;101680.59;;;7.91;100.00
56928;BME280;60850;52.502;13.426;2024-03-22T00:07:20;101687.69;;;7.92;100.00
56928;BME280;60850;52.502;13.426;2024-03-22T00:09:47;101676.19;;;7.83;100.00
56928;BME280;60850;52.502;13.426;2024-03-22T00:12:13;101667.34;;;7.84;100.00
56928;BME280;60850;52.502;13.426;2024-03-22T00:14:40;101677.94;;;7.75;100.00
56928;BME280;60850;52.502;13.426;2024-03-22T00:17:07;101676.19;;;7.70;100.00
56928;BME280;60850;52.502;13.426;2024-03-22T00:19:34;101675.28;;;7.70;100.00
56928;BME280;60850;52.502;13.426;2024-03-22T00:22:01;101677.03;;;7.74;100.00
56928;BME280;60850;52.502;13.426;2024-03-22T00:24:29;101672.66;;;7.82;100.00
56928;BME280;60850;52.502;13.426;2024-03-22T00:26:55;101670.84;;;7.80;100.00
56928;BME280;60850;52.502;13.426;2024-03-22T00:29:23;101660.25;;;7.83;100.00
56928;BME280;60850;52.502;13.426;2024-03-22T00:31:50;101667.34;;;7.90;100.00
56928;BME280;60850;52.502;13.426;2024-03-22T00:34:17;101654.94;;;7.92;100.00
56928;BME280;60850;52.502;13.426;2024-03-22T00:36:46;101647.84;;;7.91;100.00
56928;BME280;60850;52.502;13.426;2024-03-22T00:39:13;101646.09;;;7.97;100.00
56928;BME280;60850;52.502;13.426;2024-03-22T00:41:41;101643.41;;;8.01;100.00
56928;BME280;60850;52.502;13.426;2024-03-22T00:44:07;101640.75;;;7.93;100.00
56928;BME280;60850;52.502;13.426;2024-03-22T00:46:34;101642.53;;;7.98;100.00
56928;BME280;60850;52.502;13.426;2024-03-22T00:49:01;101640.75;;;8.02;100.00
56928;BME280;60850;52.502;13.426;2024-03-22T00:51:27;101633.69;;;7.98;100.00
56928;BME280;60850;52.502;13.426;2024-03-22T00:53:54;101639.88;;;7.98;100.00
56928;BME280;60850;52.502;13.426;2024-03-22T00:56:20;101641.63;;;8.01;100.00
56928;BME280;60850;52.502;13.426;2024-03-22T00:58:49;101642.50;;;8.03;100.00
56928;BME280;60850;52.502;13.426;2024-03-22T01:01:15;101633.69;;;8.04;100.00
56928;BME280;60850;52.502;13.426;2024-03-22T01:03:42;101627.53;;;7.82;100.00
56928;BME280;60850;52.502;13.426;2024-03-22T01:06:08;101625.75;;;7.84;100.00
56928;BME280;60850;52.502;13.426;2024-03-22T01:08:35;101623.09;;;7.77;100.00
56928;BME280;60850;52.502;13.426;2024-03-22T01:11:02;101621.34;;;7.76;100.00
56928;BME280;60850;52.502;13.426;2024-03-22T01:13:29;101621.34;;;7.76;100.00
56928;BME280;60850;52.502;13.426;2024-03-22T01:15:56;101616.91;;;7.76;100.00
56928;BME280;60850;52.502;13.426;2024-03-22T01:18:23;101614.22;;;7.79;100.00
56928;BME280;60850;52.502;13.426;2024-03-22T01:20:50;101609.81;;;7.80;100.00
56928;BME280;60850;52.502;13.426;2024-03-22T01:23:16;101602.75;;;7.57;100.00
56928;BME280;60850;52.502;13.426;2024-03-22T01:25:43;101608.94;;;7.62;100.00
56928;BME280;60850;52.502;13.426;2024-03-22T01:28:11;101607.16;;;7.58;100.00
56928;BME280;60850;52.502;13.426;2024-03-22T01:30:37;101608.94;;;7.64;100.00
56928;BME280;60850;52.502;13.426;2024-03-22T01:33:06;101605.38;;;7.66;100.00
56928;BME280;60850;52.502;13.426;2024-03-22T01:35:32;101599.22;;;7.61;100.00
56928;BME280;60850;52.502;13.426;2024-03-22T01:37:59;101594.78;;;7.60;100.00
56928;BME280;60850;52.502;13.426;2024-03-22T01:40:25;101600.09;;;7.51;100.00
56928;BME280;60850;52.502;13.426;2024-03-22T01:42:53;101601.88;;;7.58;100.00
56928;BME280;60850;52.502;13.426;2024-03-22T01:45:19;101593.88;;;7.60;100.00
56928;BME280;60850;52.502;13.426;2024-03-22T01:47:46;101585.97;;;7.61;100.00
56928;BME280;60850;52.502;13.426;2024-03-22T01:50:14;101587.72;;;7.52;100.00
56928;BME280;60850;52.502;13.426;2024-03-22T01:52:41;101584.19;;;7.54;100.00
56928;BME280;60850;52.502;13.426;2024-03-22T01:55:08;101583.28;;;7.58;100.00
56928;BME280;60850;52.502;13.426;2024-03-22T01:57:35;101574.44;;;7.52;100.00
56928;BME280;60850;52.502;13.426;2024-03-22T02:00:02;101580.63;;;7.58;100.00
56928;BME280;60850;52.502;13.426;2024-03-22T02:02:30;101577.09;;;7.62;100.00
56928;BME280;60850;52.502;13.426;2024-03-22T02:04:56;101577.09;;;7.62;100.00
56928;BME280;60850;52.502;13.426;2024-03-22T02:07:24;101574.44;;;7.58;100.00
56928;BME280;60850;52.502;13.426;2024-03-22T02:09:53;101570.88;;;7.60;100.00
56928;BME280;60850;52.502;13.426;2024-03-22T02:12:20;101570.03;;;7.55;100.00
56928;BME280;60850;52.502;13.426;2024-03-22T02:14:46;101563.81;;;7.58;100.00
56928;BME280;60850;52.502;13.426;2024-03-22T02:17:13;101562.94;;;7.60;100.00
56928;BME280;60850;52.502;13.426;2024-03-22T02:19:39;101557.63;;;7.63;100.00
56928;BME280;60850;52.502;13.426;2024-03-22T02:22:06;101555.00;;;7.62;100.00
56928;BME280;60850;52.502;13.426;2024-03-22T02:24:33;101562.94;;;7.65;100.00
56928;BME280;60850;52.502;13.426;2024-03-22T02:27:00;101561.19;;;7.62;100.00
56928;BME280;60850;52.502;13.426;2024-03-22T02:29:26;101556.75;;;7.69;100.00
56928;BME280;60850;52.502;13.426;2024-03-22T02:31:53;101541.69;;;7.68;100.00
56928;BME280;60850;52.502;13.426;2024-03-22T02:34:19;101531.09;;;7.65;100.00
56928;BME280;60850;52.502;13.426;2024-03-22T02:36:46;101524.91;;;7.61;100.00
56928;BME280;60850;52.502;13.426;2024-03-22T02:39:13;101524.00;;;7.61;100.00
56928;BME280;60850;52.502;13.426;2024-03-22T02:41:41;101521.34;;;7.65;100.00
56928;BME280;60850;52.502;13.426;2024-03-22T02:44:07;101520.44;;;7.68;100.00
56928;BME280;60850;52.502;13.426;2024-03-22T02:46:34;101511.63;;;7.69;100.00
56928;BME280;60850;52.502;13.426;2024-03-22T02:49:00;101512.47;;;7.74;100.00
56928;BME280;60850;52.502;13.426;2024-03-22T02:51:30;101515.16;;;7.72;100.00
56928;BME280;60850;52.502;13.426;2024-03-22T02:53:56;101516.91;;;7.74;100.00
56928;BME280;60850;52.502;13.426;2024-03-22T02:56:24;101510.75;;;7.62;100.00
56928;BME280;60850;52.502;13.426;2024-03-22T02:58:51;101516.94;;;7.64;100.00
56928;BME280;60850;52.502;13.426;2024-03-22T03:01:18;101500.13;;;7.64;100.00
56928;BME280;60850;52.502;13.426;2024-03-22T03:03:44;101500.13;;;7.64;100.00
56928;BME280;60850;52.502;13.426;2024-03-22T03:06:11;101490.41;;;7.61;100.00
56928;BME280;60850;52.502;13.426;2024-03-22T03:08:39;101487.75;;;7.66;100.00
56928;BME280;60850;52.502;13.426;2024-03-22T03:11:06;101487.75;;;7.52;100.00
56928;BME280;60850;52.502;13.426;2024-03-22T03:13:32;101484.22;;;7.62;100.00
56928;BME280;60850;52.502;13.426;2024-03-22T03:16:00;101492.19;;;7.68;100.00
56928;BME280;60850;52.502;13.426;2024-03-22T03:18:26;101478.91;;;7.68;100.00
56928;BME280;60850;52.502;13.426;2024-03-22T03:20:53;101479.78;;;7.64;100.00
56928;BME280;60850;52.502;13.426;2024-03-22T03:23:19;101467.41;;;7.59;100.00
56928;BME280;60850;52.502;13.426;2024-03-22T03:25:46;101466.50;;;7.70;100.00
56928;BME280;60850;52.502;13.426;2024-03-22T03:28:14;101457.66;;;7.70;100.00
56928;BME280;60850;52.502;13.426;2024-03-22T03:30:40;101442.59;;;7.74;100.00
56928;BME280;60850;52.502;13.426;2024-03-22T03:33:08;101436.44;;;7.68;100.00
56928;BME280;60850;52.502;13.426;2024-03-22T03:35:35;101435.53;;;7.66;100.00
56928;BME280;60850;52.502;13.426;2024-03-22T03:38:01;101428.50;;;7.64;100.00
56928;BME280;60850;52.502;13.426;2024-03-22T03:40:28;101426.72;;;7.63;100.00
56928;BME280;60850;52.502;13.426;2024-03-22T03:42:54;101431.13;;;7.64;100.00
56928;BME280;60850;52.502;13.426;2024-03-22T03:45:21;101428.47;;;7.65;100.00
56928;BME280;60850;52.502;13.426;2024-03-22T03:47:47;101430.22;;;7.71;100.00
56928;BME280;60850;52.502;13.426;2024-03-22T03:50:16;101435.53;;;7.66;100.00
56928;BME280;60850;52.502;13.426;2024-03-22T03:52:42;101427.59;;;7.69;100.00
56928;BME280;60850;52.502;13.426;2024-03-22T03:55:09;101416.97;;;7.71;100.00
56928;BME280;60850;52.502;13.426;2024-03-22T03:57:35;101411.66;;;7.71;100.00
56928;BME280;60850;52.502;13.426;2024-03-22T04:00:02;101414.31;;;7.69;100.00
56928;BME280;60850;52.502;13.426;2024-03-22T04:02:30;101400.19;;;7.64;100.00
56928;BME280;60850;52.502;13.426;2024-03-22T04:04:57;101406.38;;;7.65;100.00
56928;BME280;60850;52.502;13.426;2024-03-22T04:07:24;101401.97;;;7.62;100.00
56928;BME280;60850;52.502;13.426;2024-03-22T04:09:51;101402.84;;;7.64;100.00
56928;BME280;60850;52.502;13.426;2024-03-22T04:12:18;101394.91;;;7.61;100.00
56928;BME280;60850;52.502;13.426;2024-03-22T04:14:44;101392.22;;;7.63;100.00
56928;BME280;60850;52.502;13.426;2024-03-22T04:17:11;101384.28;;;7.58;100.00
56928;BME280;60850;52.502;13.426;2024-03-22T04:19:38;101386.03;;;7.62;100.00
56928;BME280;60850;52.502;13.426;2024-03-22T04:22:04;101378.06;;;7.64;100.00
56928;BME280;60850;52.502;13.426;2024-03-22T04:24:32;101378.94;;;7.66;100.00
56928;BME280;60850;52.502;13.426;2024-03-22T04:26:58;101378.06;;;7.65;100.00
56928;BME280;60850;52.502;13.426;2024-03-22T04:29:25;101377.16;;;7.69;100.00
56928;BME280;60850;52.502;13.426;2024-03-22T04:31:51;101372.75;;;7.68;100.00
56928;BME280;60850;52.502;13.426;2024-03-22T04:34:18;101363.88;;;7.68;100.00
56928;BME280;60850;52.502;13.426;2024-03-22T04:36:44;101363.88;;;7.71;100.00
56928;BME280;60850;52.502;13.426;2024-03-22T04:39:11;101368.31;;;7.70;100.00
56928;BME280;60850;52.502;13.426;2024-03-22T04:41:41;101339.97;;;7.76;100.00
56928;BME280;60850;52.502;13.426;2024-03-22T04:44:07;101348.84;;;7.71;100.00
56928;BME280;60850;52.502;13.426;2024-03-22T04:46:34;101343.56;;;7.68;100.00
56928;BME280;60850;52.502;13.426;2024-03-22T04:49:00;101332.91;;;7.71;100.00
56928;BME280;60850;52.502;13.426;2024-03-22T04:51:27;101338.22;;;7.71;100.00
56928;BME280;60850;52.502;13.426;2024-03-22T04:53:53;101337.31;;;7.74;100.00
56928;BME280;60850;52.502;13.426;2024-03-22T04:56:20;101331.13;;;7.77;100.00
56928;BME280;60850;52.502;13.426;2024-03-22T04:58:48;101330.25;;;7.73;100.00
56928;BME280;60850;52.502;13.426;2024-03-22T05:01:14;101330.22;;;7.82;100.00
56928;BME280;60850;52.502;13.426;2024-03-22T05:03:41;101326.69;;;7.79;100.00
56928;BME280;60850;52.502;13.426;2024-03-22T05:06:07;101324.06;;;7.76;100.00
56928;BME280;60850;52.502;13.426;2024-03-22T05:08:34;101325.84;;;7.70;100.00
56928;BME280;60850;52.502;13.426;2024-03-22T05:11:00;101322.31;;;7.70;100.00
56928;BME280;60850;52.502;13.426;2024-03-22T05:13:27;101324.91;;;7.79;100.00
56928;BME280;60850;52.502;13.426;2024-03-22T05:15:55;101321.38;;;7.79;100.00
56928;BME280;60850;52.502;13.426;2024-03-22T05:18:22;101327.53;;;7.84;100.00
56928;BME280;60850;52.502;13.426;2024-03-22T05:20:48;101319.56;;;7.85;100.00
56928;BME280;60850;52.502;13.426;2024-03-22T05:23:15;101316.84;;;7.93;100.00
56928;BME280;60850;52.502;13.426;2024-03-22T05:25:42;101316.81;;;7.96;100.00
56928;BME280;60850;52.502;13.426;2024-03-22T05:28:09;101307.03;;;8.03;100.00
56928;BME280;60850;52.502;13.426;2024-03-22T05:30:35;101293.84;;;7.96;100.00
56928;BME280;60850;52.502;13.426;2024-03-22T05:33:03;101297.31;;;8.03;100.00
56928;BME280;60850;52.502;13.426;2024-03-22T05:35:30;101294.66;;;8.05;100.00
56928;BME280;60850;52.502;13.426;2024-03-22T05:37:57;101289.38;;;7.98;100.00
56928;BME280;60850;52.502;13.426;2024-03-22T05:40:23;101292.94;;;7.96;100.00
56928;BME280;60850;52.502;13.426;2024-03-22T05:42:50;101282.31;;;7.96;100.00
56928;BME280;60850;52.502;13.426;2024-03-22T05:45:16;101291.13;;;8.04;100.00
56928;BME280;60850;52.502;13.426;2024-03-22T05:47:43;101295.47;;;8.13;100.00
56928;BME280;60850;52.502;13.426;2024-03-22T05:50:10;101288.41;;;8.10;100.00
56928;BME280;60850;52.502;13.426;2024-03-22T05:52:37;101282.16;;;8.17;100.00
56928;BME280;60850;52.502;13.426;2024-03-22T05:55:04;101272.41;;;8.19;100.00
56928;BME280;60850;52.502;13.426;2024-03-22T05:57:32;101259.19;;;8.12;100.00
56928;BME280;60850;52.502;13.426;2024-03-22T05:59:58;101268.88;;;8.16;100.00
56928;BME280;60850;52.502;13.426;2024-03-22T06:02:25;101266.13;;;8.28;100.00
56928;BME280;60850;52.502;13.426;2024-03-22T06:04:51;101262.59;;;8.24;100.00
56928;BME280;60850;52.502;13.426;2024-03-22T06:07:19;101252.84;;;8.30;100.00
56928;BME280;60850;52.502;13.426;2024-03-22T06:09:46;101260.72;;;8.43;100.00
56928;BME280;60850;52.502;13.426;2024-03-22T06:12:13;101254.50;;;8.46;100.00
56928;BME280;60850;52.502;13.426;2024-03-22T06:14:39;101259.81;;;8.44;100.00
56928;BME280;60850;52.502;13.426;2024-03-22T06:17:06;101257.97;;;8.54;100.00
56928;BME280;60850;52.502;13.426;2024-03-22T06:19:33;101247.28;;;8.57;100.00
56928;BME280;60850;52.502;13.426;2024-03-22T06:21:59;101245.50;;;8.59;100.00
56928;BME280;60850;52.502;13.426;2024-03-22T06:24:27;101241.13;;;8.52;100.00
56928;BME280;60850;52.502;13.426;2024-03-22T06:26:54;101240.22;;;8.56;100.00
56928;BME280;60850;52.502;13.426;2024-03-22T06:29:20;101241.09;;;8.57;100.00
56928;BME280;60850;52.502;13.426;2024-03-22T06:31:47;101242.00;;;8.56;100.00
56928;BME280;60850;52.502;13.426;2024-03-22T06:34:16;101242.84;;;8.58;100.00
56928;BME280;60850;52.502;13.426;2024-03-22T06:36:42;101236.56;;;8.66;100.00
56928;BME280;60850;52.502;13.426;2024-03-22T06:39:09;101238.34;;;8.66;100.00
56928;BME280;60850;52.502;13.426;2024-03-22T06:41:37;101236.56;;;8.68;100.00
56928;BME280;60850;52.502;13.426;2024-03-22T06:44:03;101228.53;;;8.72;100.00
56928;BME280;60850;52.502;13.426;2024-03-22T06:46:30;101228.47;;;8.77;100.00
56928;BME280;60850;52.502;13.426;2024-03-22T06:48:57;101226.63;;;8.84;100.00
56928;BME280;60850;52.502;13.426;2024-03-22T06:51:24;101223.22;;;8.74;100.00
56928;BME280;60850;52.502;13.426;2024-03-22T06:53:50;101223.94;;;8.87;100.00
56928;BME280;60850;52.502;13.426;2024-03-22T06:56:17;101216.91;;;8.79;100.00
56928;BME280;60850;52.502;13.426;2024-03-22T06:58:45;101219.50;;;8.86;100.00
56928;BME280;60850;52.502;13.426;2024-03-22T07:01:12;101214.28;;;8.81;100.00
56928;BME280;60850;52.502;13.426;2024-03-22T07:03:38;101214.13;;;8.92;100.00
56928;BME280;60850;52.502;13.426;2024-03-22T07:06:05;101206.13;;;8.93;100.00
56928;BME280;60850;52.502;13.426;2024-03-22T07:08:33;101216.75;;;8.93;100.00
56928;BME280;60850;52.502;13.426;2024-03-22T07:11:04;101208.72;;;8.98;100.00
56928;BME280;60850;52.502;13.426;2024-03-22T07:13:31;101204.25;;;9.03;100.00
56928;BME280;60850;52.502;13.426;2024-03-22T07:16:00;101212.22;;;9.01;100.00
56928;BME280;60850;52.502;13.426;2024-03-22T07:18:26;101206.72;;;9.15;100.00
56928;BME280;60850;52.502;13.426;2024-03-22T07:20:53;101200.53;;;9.16;100.00
56928;BME280;60850;52.502;13.426;2024-03-22T07:23:19;101196.88;;;9.23;100.00
56928;BME280;60850;52.502;13.426;2024-03-22T07:25:46;101194.16;;;9.26;100.00
56928;BME280;60850;52.502;13.426;2024-03-22T07:28:14;101200.25;;;9.34;100.00
56928;BME280;60850;52.502;13.426;2024-03-22T07:30:41;101201.81;;;9.49;100.00
56928;BME280;60850;52.502;13.426;2024-03-22T07:33:10;101196.56;;;9.46;100.00
56928;BME280;60850;52.502;13.426;2024-03-22T07:35:38;101196.59;;;9.45;100.00
56928;BME280;60850;52.502;13.426;2024-03-22T07:38:04;101198.38;;;9.43;100.00
56928;BME280;60850;52.502;13.426;2024-03-22T07:40:32;101196.69;;;9.35;100.00
56928;BME280;60850;52.502;13.426;2024-03-22T07:42:58;101199.31;;;9.37;100.00
56928;BME280;60850;52.502;13.426;2024-03-22T07:45:31;101201.03;;;9.43;100.00
56928;BME280;60850;52.502;13.426;2024-03-22T07:47:58;101201.94;;;9.42;100.00
56928;BME280;60850;52.502;13.426;2024-03-22T07:50:27;101198.03;;;9.64;100.00
56928;BME280;60850;52.502;13.426;2024-03-22T07:52:53;101193.59;;;9.66;100.00
56928;BME280;60850;52.502;13.426;2024-03-22T07:55:20;101191.72;;;9.71;100.00
56928;BME280;60850;52.502;13.426;2024-03-22T07:57:46;101188.97;;;9.77;100.00
56928;BME280;60850;52.502;13.426;2024-03-22T08:00:13;101182.72;;;9.80;100.00
56928;BME280;60850;52.502;13.426;2024-03-22T08:02:41;101194.06;;;9.91;100.00
56928;BME280;60850;52.502;13.426;2024-03-22T08:05:07;101195.78;;;9.94;100.00
56928;BME280;60850;52.502;13.426;2024-03-22T08:07:35;101183.28;;;9.99;100.00
56928;BME280;60850;52.502;13.426;2024-03-22T08:10:03;101173.34;;;10.10;100.00
56928;BME280;60850;52.502;13.426;2024-03-22T08:12:30;101176.63;;;10.26;100.00
56928;BME280;60850;52.502;13.426;2024-03-22T08:14:57;101167.78;;;10.21;100.00
56928;BME280;60850;52.502;13.426;2024-03-22T08:17:23;101173.97;;;10.26;100.00
56928;BME280;60850;52.502;13.426;2024-03-22T08:19:50;101160.72;;;10.19;100.00
56928;BME280;60850;52.502;13.426;2024-03-22T08:22:16;101167.75;;;10.25;100.00
56928;BME280;60850;52.502;13.426;2024-03-22T08:24:44;101160.38;;;10.39;100.00
56928;BME280;60850;52.502;13.426;2024-03-22T08:27:10;101147.81;;;10.46;100.00
56928;BME280;60850;52.502;13.426;2024-03-22T08:29:39;101157.59;;;10.45;100.00
56928;BME280;60850;52.502;13.426;2024-03-22T08:32:07;101161.41;;;10.32;100.00
56928;BME280;60850;52.502;13.426;2024-03-22T08:34:34;101154.88;;;10.50;100.00
56928;BME280;60850;52.502;13.426;2024-03-22T08:37:00;101148.31;;;10.66;100.00
56928;BME280;60850;52.502;13.426;2024-03-22T08:39:29;101140.31;;;10.66;100.00
56928;BME280;60850;52.502;13.426;2024-03-22T08:41:57;101128.09;;;10.55;100.00
56928;BME280;60850;52.502;13.426;2024-03-22T08:44:24;101128.66;;;10.72;100.00
56928;BME280;60850;52.502;13.426;2024-03-22T08:46:50;101123.91;;;10.86;100.00
56928;BME280;60850;52.502;13.426;2024-03-22T08:49:17;101118.78;;;10.76;100.00
56928;BME280;60850;52.502;13.426;2024-03-22T08:51:45;101114.44;;;10.70;100.00
56928;BME280;60850;52.502;13.426;2024-03-22T08:54:13;101112.81;;;11.05;100.00
56928;BME280;60850;52.502;13.426;2024-03-22T08:56:40;101107.41;;;11.06;100.00
56928;BME280;60850;52.502;13.426;2024-03-22T08:59:08;101100.03;;;11.19;100.00
56928;BME280;60850;52.502;13.426;2024-03-22T09:01:36;101095.63;;;11.16;100.00
56928;BME280;60850;52.502;13.426;2024-03-22T09:04:03;101091.41;;;11.06;100.00
56928;BME280;60850;52.502;13.426;2024-03-22T09:06:29;101091.09;;;11.21;100.00
56928;BME280;60850;52.502;13.426;2024-03-22T09:08:56;101088.97;;;11.36;100.00
56928;BME280;60850;52.502;13.426;2024-03-22T09:11:23;101090.81;;;11.32;100.00
56928;BME280;60850;52.502;13.426;2024-03-22T09:13:51;101092.72;;;11.63;100.00
56928;BME280;60850;52.502;13.426;2024-03-22T09:16:19;101085.97;;;11.85;100.00
56928;BME280;60850;52.502;13.426;2024-03-22T09:18:46;101086.69;;;11.54;100.00
56928;BME280;60850;52.502;13.426;2024-03-22T09:21:12;101077.84;;;11.88;100.00
56928;BME280;60850;52.502;13.426;2024-03-22T09:23:39;101064.75;;;12.12;100.00
56928;BME280;60850;52.502;13.426;2024-03-22T09:26:06;101060.78;;;11.94;100.00
56928;BME280;60850;52.502;13.426;2024-03-22T09:28:32;101070.19;;;12.08;100.00
56928;BME280;60850;52.502;13.426;2024-03-22T09:31:03;101054.53;;;12.27;100.00
56928;BME280;60850;52.502;13.426;2024-03-22T09:33:32;101060.91;;;12.22;100.00
56928;BME280;60850;52.502;13.426;2024-03-22T09:35:58;101058.41;;;11.83;100.00
56928;BME280;60850;52.502;13.426;2024-03-22T09:38:26;101064.44;;;11.91;100.00
56928;BME280;60850;52.502;13.426;2024-03-22T09:40:52;101075.38;;;12.15;100.00
56928;BME280;60850;52.502;13.426;2024-03-22T09:43:20;101072.63;;;12.47;100.00
56928;BME280;60850;52.502;13.426;2024-03-22T09:45:47;101055.53;;;12.53;100.00
56928;BME280;60850;52.502;13.426;2024-03-22T09:48:15;101066.06;;;12.59;100.00
56928;BME280;60850;52.502;13.426;2024-03-22T09:50:42;101059.28;;;12.47;100.00
56928;BME280;60850;52.502;13.426;2024-03-22T09:53:10;101055.53;;;12.53;100.00
56928;BME280;60850;52.502;13.426;2024-03-22T09:55:37;101057.69;;;12.40;100.00
56928;BME280;60850;52.502;13.426;2024-03-22T09:58:05;101053.66;;;12.25;100.00
56928;BME280;60850;52.502;13.426;2024-03-22T10:00:31;101047.28;;;12.31;100.00
56928;BME280;60850;52.502;13.426;2024-03-22T10:02:59;101055.69;;;12.48;100.00
56928;BME280;60850;52.502;13.426;2024-03-22T10:05:26;101048.16;;;12.62;100.00
56928;BME280;60850;52.502;13.426;2024-03-22T10:07:55;101044.03;;;12.51;100.00
56928;BME280;60850;52.502;13.426;2024-03-22T10:10:21;101042.63;;;12.69;100.00
56928;BME280;60850;52.502;13.426;2024-03-22T10:12:48;101036.91;;;12.79;100.00
56928;BME280;60850;52.502;13.426;2024-03-22T10:15:14;101036.22;;;12.73;100.00
56928;BME280;60850;52.502;13.426;2024-03-22T10:17:42;101041.41;;;12.79;100.00
56928;BME280;60850;52.502;13.426;2024-03-22T10:20:12;101027.88;;;12.83;100.00
56928;BME280;60850;52.502;13.426;2024-03-22T10:22:41;101030.13;;;12.69;100.00
56928;BME280;60850;52.502;13.426;2024-03-22T10:25:09;101025.22;;;12.82;100.00
56928;BME280;60850;52.502;13.426;2024-03-22T10:27:38;101025.94;;;12.59;100.00
56928;BME280;60850;52.502;13.426;2024-03-22T10:30:08;101023.16;;;12.91;100.00
56928;BME280;60850;52.502;13.426;2024-03-22T10:32:36;101010.06;;;12.82;100.00
56928;BME280;60850;52.502;13.426;2024-03-22T10:35:03;101020.38;;;12.95;100.00
56928;BME280;60850;52.502;13.426;2024-03-22T10:37:32;101011.47;;;12.94;100.00
56928;BME280;60850;52.502;13.426;2024-03-22T10:40:01;101009.91;;;13.15;100.00
56928;BME280;60850;52.502;13.426;2024-03-22T10:42:34;101001.94;;;13.13;100.00
56928;BME280;60850;52.502;13.426;2024-03-22T10:45:01;101000.00;;;13.17;100.00
56928;BME280;60850;52.502;13.426;2024-03-22T10:47:29;101008.41;;;13.61;100.00
56928;BME280;60850;52.502;13.426;2024-03-22T10:50:00;100998.44;;;13.64;100.00
56928;BME280;60850;52.502;13.426;2024-03-22T10:52:28;100993.06;;;14.14;100.00
56928;BME280;60850;52.502;13.426;2024-03-22T10:54:54;100995.06;;;14.33;100.00
56928;BME280;60850;52.502;13.426;2024-03-22T10:57:22;100992.03;;;14.18;100.00
56928;BME280;60850;52.502;13.426;2024-03-22T10:59:54;100985.84;;;14.40;100.00
56928;BME280;60850;52.502;13.426;2024-03-22T11:02:23;100970.84;;;14.34;100.00
56928;BME280;60850;52.502;13.426;2024-03-22T11:04:59;100968.34;;;14.29;100.00
56928;BME280;60850;52.502;13.426;2024-03-22T11:07:28;100969.56;;;14.21;100.00
56928;BME280;60850;52.502;13.426;2024-03-22T11:09:56;100962.72;;;14.61;100.00
56928;BME280;60850;52.502;13.426;2024-03-22T11:12:24;100965.47;;;14.59;100.00
56928;BME280;60850;52.502;13.426;2024-03-22T11:14:53;100960.66;;;14.67;100.00
56928;BME280;60850;52.502;13.426;2024-03-22T11:17:20;100958.53;;;14.75;100.00
56928;BME280;60850;52.502;13.426;2024-03-22T11:19:48;100948.34;;;14.83;100.00
56928;BME280;60850;52.502;13.426;2024-03-22T11:22:15;100947.50;;;14.38;100.00
56928;BME280;60850;52.502;13.426;2024-03-22T11:24:41;100941.66;;;14.50;100.00
56928;BME280;60850;52.502;13.426;2024-03-22T11:27:09;100937.69;;;14.60;100.00
56928;BME280;60850;52.502;13.426;2024-03-22T11:29:36;100941.78;;;14.47;100.00
56928;BME280;60850;52.502;13.426;2024-03-22T11:32:08;100946.25;;;14.23;100.00
56928;BME280;60850;52.502;13.426;2024-03-22T11:34:34;100948.28;;;14.16;100.00
56928;BME280;60850;52.502;13.426;2024-03-22T11:37:02;100947.13;;;14.00;100.00
56928;BME280;60850;52.502;13.426;2024-03-22T11:39:28;100946.94;;;13.56;100.00
56928;BME280;60850;52.502;13.426;2024-03-22T11:41:55;100932.63;;;13.57;100.00
56928;BME280;60850;52.502;13.426;2024-03-22T11:44:22;100940.56;;;13.60;100.00
56928;BME280;60850;52.502;13.426;2024-03-22T11:46:51;100940.88;;;13.51;100.00
56928;BME280;60850;52.502;13.426;2024-03-22T11:49:19;100935.72;;;13.45;100.00
56928;BME280;60850;52.502;13.426;2024-03-22T11:51:46;100933.22;;;13.40;100.00
56928;BME280;60850;52.502;13.426;2024-03-22T11:54:12;100929.53;;;13.16;100.00
56928;BME280;60850;52.502;13.426;2024-03-22T11:56:40;100921.88;;;13.06;100.00
56928;BME280;60850;52.502;13.426;2024-03-22T11:59:06;100920.91;;;13.08;100.00
56928;BME280;60850;52.502;13.426;2024-03-22T12:01:33;100926.44;;;13.04;100.00
56928;BME280;60850;52.502;13.426;2024-03-22T12:03:59;100915.66;;;13.05;100.00
56928;BME280;60850;52.502;13.426;2024-03-22T12:06:28;100912.81;;;13.10;100.00
56928;BME280;60850;52.502;13.426;2024-03-22T12:08:54;100915.16;;;13.21;100.00
56928;BME280;60850;52.502;13.426;2024-03-22T12:11:21;100911.22;;;13.31;100.00
56928;BME280;60850;52.502;13.426;2024-03-22T12:13:47;100901.28;;;13.08;100.00
56928;BME280;60850;52.502;13.426;2024-03-22T12:16:14;100910.72;;;12.93;100.00
56928;BME280;60850;52.502;13.426;2024-03-22T12:18:40;100897.34;;;12.93;100.00
56928;BME280;60850;52.502;13.426;2024-03-22T12:21:07;100891.19;;;12.89;100.00
56928;BME280;60850;52.502;13.426;2024-03-22T12:23:35;100899.47;;;12.82;100.00
56928;BME280;60850;52.502;13.426;2024-03-22T12:26:02;100895.19;;;12.78;100.00
56928;BME280;60850;52.502;13.426;2024-03-22T12:28:28;100890.03;;;12.72;100.00
56928;BME280;60850;52.502;13.426;2024-03-22T12:30:55;100889.84;;;12.50;100.00
56928;BME280;60850;52.502;13.426;2024-03-22T12:33:22;100887.53;;;12.65;100.00
56928;BME280;60850;52.502;13.426;2024-03-22T12:35:49;100891.69;;;12.76;100.00